sensor_id;sensor_type;location;lat;lon;timestamp;pressure;altitude;pressure_sealevel;temperature;humidity
16331;BME280;8275;48.206;16.340;2023-07-08T00:01:18;99728.44;;;25.25;31.94
16331;BME280;8275;48.206;16.340;2023-07-08T00:03:48;99723.53;;;25.22;32.09
16331;BME280;8275;48.206;16.340;2023-07-08T00:06:19;99722.22;;;25.20;32.18
16331;BME280;8275;48.206;16.340;2023-07-08T00:08:48;99731.31;;;25.17;32.31
16331;BME280;8275;48.206;16.340;2023-07-08T00:11:17;99732.00;;;25.14;32.62
16331;BME280;8275;48.206;16.340;2023-07-08T00:13:47;99731.53;;;25.12;32.48
16331;BME280;8275;48.206;16.340;2023-07-08T00:16:17;99734.19;;;25.08;32.85
16331;BME280;8275;48.206;16.340;2023-07-08T00:18:47;99736.16;;;25.07;32.61
16331;BME280;8275;48.206;16.340;2023-07-08T00:21:17;99740.13;;;25.06;32.41
16331;BME280;8275;48.206;16.340;2023-07-08T00:23:47;99730.78;;;25.02;32.34
16331;BME280;8275;48.206;16.340;2023-07-08T00:26:20;99739.03;;;24.99;32.22
16331;BME280;8275;48.206;16.340;2023-07-08T00:28:52;99743.34;;;24.96;32.13
16331;BME280;8275;48.206;16.340;2023-07-08T00:31:22;99744.00;;;24.93;32.08
16331;BME280;8275;48.206;16.340;2023-07-08T00:33:52;99739.09;;;24.90;32.31
16331;BME280;8275;48.206;16.340;2023-07-08T00:36:25;99743.41;;;24.88;32.19
16331;BME280;8275;48.206;16.340;2023-07-08T00:38:54;99736.84;;;24.84;32.21
16331;BME280;8275;48.206;16.340;2023-07-08T00:41:27;99731.91;;;24.81;32.81
16331;BME280;8275;48.206;16.340;2023-07-08T00:43:59;99733.41;;;24.78;32.49
16331;BME280;8275;48.206;16.340;2023-07-08T00:46:40;99728.44;;;24.75;32.38
16331;BME280;8275;48.206;16.340;2023-07-08T00:49:28;99715.44;;;24.71;32.15
16331;BME280;8275;48.206;16.340;2023-07-08T00:52:21;99716.13;;;24.68;32.04
16331;BME280;8275;48.206;16.340;2023-07-08T00:54:53;99720.56;;;24.69;31.95
16331;BME280;8275;48.206;16.340;2023-07-08T00:57:26;99714.81;;;24.65;31.88
16331;BME280;8275;48.206;16.340;2023-07-08T01:00:00;99707.44;;;24.61;31.92
16331;BME280;8275;48.206;16.340;2023-07-08T01:02:40;99714.19;;;24.60;32.01
16331;BME280;8275;48.206;16.340;2023-07-08T01:05:13;99714.84;;;24.57;31.85
16331;BME280;8275;48.206;16.340;2023-07-08T01:07:47;99721.16;;;24.54;31.90
16331;BME280;8275;48.206;16.340;2023-07-08T01:10:22;99717.38;;;24.50;31.94
16331;BME280;8275;48.206;16.340;2023-07-08T01:12:55;99720.84;;;24.47;32.07
16331;BME280;8275;48.206;16.340;2023-07-08T01:15:33;99717.09;;;24.42;32.14
16331;BME280;8275;48.206;16.340;2023-07-08T01:18:05;99722.69;;;24.42;32.08
16331;BME280;8275;48.206;16.340;2023-07-08T01:20:34;99710.97;;;24.40;32.17
16331;BME280;8275;48.206;16.340;2023-07-08T01:23:04;99711.69;;;24.37;32.61
16331;BME280;8275;48.206;16.340;2023-07-08T01:25:33;99705.59;;;24.35;32.38
16331;BME280;8275;48.206;16.340;2023-07-08T01:28:02;99709.06;;;24.32;32.30
16331;BME280;8275;48.206;16.340;2023-07-08T01:30:31;99704.94;;;24.30;32.32
16331;BME280;8275;48.206;16.340;2023-07-08T01:33:04;99705.59;;;24.27;32.38
16331;BME280;8275;48.206;16.340;2023-07-08T01:35:34;99707.94;;;24.25;32.56
16331;BME280;8275;48.206;16.340;2023-07-08T01:38:06;99703.03;;;24.22;33.01
16331;BME280;8275;48.206;16.340;2023-07-08T01:40:50;99706.31;;;24.15;33.30
16331;BME280;8275;48.206;16.340;2023-07-08T01:43:19;99700.59;;;24.12;33.34
16331;BME280;8275;48.206;16.340;2023-07-08T01:45:48;99696.00;;;24.07;33.69
16331;BME280;8275;48.206;16.340;2023-07-08T01:48:22;99699.75;;;24.03;34.04
16331;BME280;8275;48.206;16.340;2023-07-08T01:50:56;99699.09;;;23.97;34.06
16331;BME280;8275;48.206;16.340;2023-07-08T01:53:32;99699.81;;;23.94;34.07
16331;BME280;8275;48.206;16.340;2023-07-08T01:56:01;99694.38;;;23.89;34.29
16331;BME280;8275;48.206;16.340;2023-07-08T01:58:30;99690.63;;;23.85;34.54
16331;BME280;8275;48.206;16.340;2023-07-08T02:00:59;99693.25;;;23.82;34.32
16331;BME280;8275;48.206;16.340;2023-07-08T02:03:28;99696.69;;;23.79;34.69
16331;BME280;8275;48.206;16.340;2023-07-08T02:05:57;99685.72;;;23.73;34.80
16331;BME280;8275;48.206;16.340;2023-07-08T02:08:26;99683.56;;;23.70;34.62
16331;BME280;8275;48.206;16.340;2023-07-08T02:10:58;99683.72;;;23.65;35.03
16331;BME280;8275;48.206;16.340;2023-07-08T02:13:27;99690.47;;;23.64;34.87
16331;BME280;8275;48.206;16.340;2023-07-08T02:15:56;99686.38;;;23.62;35.01
16331;BME280;8275;48.206;16.340;2023-07-08T02:18:24;99690.66;;;23.59;35.13
16331;BME280;8275;48.206;16.340;2023-07-08T02:20:53;99682.94;;;23.56;34.77
16331;BME280;8275;48.206;16.340;2023-07-08T02:23:22;99678.16;;;23.57;34.58
16331;BME280;8275;48.206;16.340;2023-07-08T02:25:51;99687.69;;;23.56;34.65
16331;BME280;8275;48.206;16.340;2023-07-08T02:28:21;99676.03;;;23.54;34.57
16331;BME280;8275;48.206;16.340;2023-07-08T02:30:50;99676.84;;;23.54;34.55
16331;BME280;8275;48.206;16.340;2023-07-08T02:33:19;99674.06;;;23.54;34.50
16331;BME280;8275;48.206;16.340;2023-07-08T02:35:47;99664.84;;;23.54;34.47
16331;BME280;8275;48.206;16.340;2023-07-08T02:38:15;99658.75;;;23.52;34.23
16331;BME280;8275;48.206;16.340;2023-07-08T02:40:44;99667.16;;;23.52;34.33
16331;BME280;8275;48.206;16.340;2023-07-08T02:43:12;99665.50;;;23.51;34.38
16331;BME280;8275;48.206;16.340;2023-07-08T02:45:42;99673.41;;;23.49;34.17
16331;BME280;8275;48.206;16.340;2023-07-08T02:48:11;99672.56;;;23.48;34.16
16331;BME280;8275;48.206;16.340;2023-07-08T02:50:39;99675.69;;;23.47;34.01
16331;BME280;8275;48.206;16.340;2023-07-08T02:53:08;99667.66;;;23.45;33.96
16331;BME280;8275;48.206;16.340;2023-07-08T02:55:36;99671.94;;;23.43;34.05
16331;BME280;8275;48.206;16.340;2023-07-08T02:58:04;99675.06;;;23.41;34.08
16331;BME280;8275;48.206;16.340;2023-07-08T03:00:33;99682.94;;;23.39;33.99
16331;BME280;8275;48.206;16.340;2023-07-08T03:03:06;99681.66;;;23.37;34.31
16331;BME280;8275;48.206;16.340;2023-07-08T03:05:34;99680.00;;;23.36;34.30
16331;BME280;8275;48.206;16.340;2023-07-08T03:08:03;99689.22;;;23.36;34.28
16331;BME280;8275;48.206;16.340;2023-07-08T03:10:33;99683.13;;;23.34;34.54
16331;BME280;8275;48.206;16.340;2023-07-08T03:13:01;99675.84;;;23.33;34.72
16331;BME280;8275;48.206;16.340;2023-07-08T03:15:30;99680.34;;;23.34;35.02
16331;BME280;8275;48.206;16.340;2023-07-08T03:17:59;99685.94;;;23.34;35.40
16331;BME280;8275;48.206;16.340;2023-07-08T03:20:29;99689.84;;;23.33;35.30
16331;BME280;8275;48.206;16.340;2023-07-08T03:22:59;99689.84;;;23.33;35.45
16331;BME280;8275;48.206;16.340;2023-07-08T03:25:28;99689.34;;;23.31;35.82
16331;BME280;8275;48.206;16.340;2023-07-08T03:27:56;99691.31;;;23.31;35.99
16331;BME280;8275;48.206;16.340;2023-07-08T03:30:26;99688.03;;;23.29;35.88
16331;BME280;8275;48.206;16.340;2023-07-08T03:32:55;99704.47;;;23.30;35.93
16331;BME280;8275;48.206;16.340;2023-07-08T03:35:23;99700.03;;;23.29;35.92
16331;BME280;8275;48.206;16.340;2023-07-08T03:37:53;99704.81;;;23.29;36.10
16331;BME280;8275;48.206;16.340;2023-07-08T03:40:22;99708.09;;;23.31;36.07
16331;BME280;8275;48.206;16.340;2023-07-08T03:42:50;99713.34;;;23.32;36.26
16331;BME280;8275;48.206;16.340;2023-07-08T03:45:19;99716.69;;;23.34;36.07
16331;BME280;8275;48.206;16.340;2023-07-08T03:47:47;99716.34;;;23.36;35.95
16331;BME280;8275;48.206;16.340;2023-07-08T03:50:19;99712.41;;;23.37;36.26
16331;BME280;8275;48.206;16.340;2023-07-08T03:52:49;99708.94;;;23.40;36.42
16331;BME280;8275;48.206;16.340;2023-07-08T03:55:21;99714.53;;;23.40;36.51
16331;BME280;8275;48.206;16.340;2023-07-08T03:57:50;99715.03;;;23.42;36.37
16331;BME280;8275;48.206;16.340;2023-07-08T04:00:18;99722.28;;;23.43;36.56
16331;BME280;8275;48.206;16.340;2023-07-08T04:02:47;99716.34;;;23.44;36.52
16331;BME280;8275;48.206;16.340;2023-07-08T04:05:18;99717.66;;;23.47;36.63
16331;BME280;8275;48.206;16.340;2023-07-08T04:07:48;99712.53;;;23.49;36.51
16331;BME280;8275;48.206;16.340;2023-07-08T04:10:17;99715.53;;;23.52;36.56
16331;BME280;8275;48.206;16.340;2023-07-08T04:12:46;99715.34;;;23.57;36.55
16331;BME280;8275;48.206;16.340;2023-07-08T04:15:15;99718.28;;;23.61;36.26
16331;BME280;8275;48.206;16.340;2023-07-08T04:17:48;99716.47;;;23.65;36.47
16331;BME280;8275;48.206;16.340;2023-07-08T04:20:18;99716.78;;;23.72;36.44
16331;BME280;8275;48.206;16.340;2023-07-08T04:22:47;99721.88;;;23.79;36.53
16331;BME280;8275;48.206;16.340;2023-07-08T04:25:17;99719.72;;;23.84;36.19
16331;BME280;8275;48.206;16.340;2023-07-08T04:27:47;99716.41;;;23.91;36.37
16331;BME280;8275;48.206;16.340;2023-07-08T04:30:22;99730.25;;;23.96;36.12
16331;BME280;8275;48.206;16.340;2023-07-08T04:32:52;99721.53;;;24.06;36.15
16331;BME280;8275;48.206;16.340;2023-07-08T04:35:20;99726.59;;;24.12;35.92
16331;BME280;8275;48.206;16.340;2023-07-08T04:37:49;99722.75;;;24.25;36.00
16331;BME280;8275;48.206;16.340;2023-07-08T04:40:20;99716.09;;;24.38;35.80
16331;BME280;8275;48.206;16.340;2023-07-08T04:42:50;99715.88;;;24.52;35.64
16331;BME280;8275;48.206;16.340;2023-07-08T04:45:19;99709.53;;;24.64;35.45
16331;BME280;8275;48.206;16.340;2023-07-08T04:47:48;99713.47;;;24.71;35.36
16331;BME280;8275;48.206;16.340;2023-07-08T04:50:21;99718.72;;;24.81;35.34
16331;BME280;8275;48.206;16.340;2023-07-08T04:52:49;99717.50;;;24.91;35.24
16331;BME280;8275;48.206;16.340;2023-07-08T04:55:19;99716.25;;;25.00;35.15
16331;BME280;8275;48.206;16.340;2023-07-08T04:57:49;99716.69;;;25.11;34.75
16331;BME280;8275;48.206;16.340;2023-07-08T05:00:19;99716.53;;;25.28;34.75
16331;BME280;8275;48.206;16.340;2023-07-08T05:02:47;99722.69;;;25.42;34.39
16331;BME280;8275;48.206;16.340;2023-07-08T05:05:16;99706.41;;;25.56;34.48
16331;BME280;8275;48.206;16.340;2023-07-08T05:07:45;99720.84;;;25.67;34.25
16331;BME280;8275;48.206;16.340;2023-07-08T05:10:13;99724.38;;;25.76;34.32
16331;BME280;8275;48.206;16.340;2023-07-08T05:12:42;99719.16;;;25.87;33.96
16331;BME280;8275;48.206;16.340;2023-07-08T05:15:13;99708.63;;;25.96;34.05
16331;BME280;8275;48.206;16.340;2023-07-08T05:17:42;99706.19;;;26.06;33.58
16331;BME280;8275;48.206;16.340;2023-07-08T05:20:13;99710.00;;;26.22;33.51
16331;BME280;8275;48.206;16.340;2023-07-08T05:22:42;99708.13;;;26.38;33.73
16331;BME280;8275;48.206;16.340;2023-07-08T05:25:12;99714.94;;;26.50;33.02
16331;BME280;8275;48.206;16.340;2023-07-08T05:27:41;99708.84;;;26.60;32.78
16331;BME280;8275;48.206;16.340;2023-07-08T05:30:17;99700.78;;;26.70;33.12
16331;BME280;8275;48.206;16.340;2023-07-08T05:32:46;99699.72;;;26.87;32.62
16331;BME280;8275;48.206;16.340;2023-07-08T05:35:15;99704.97;;;27.00;32.81
16331;BME280;8275;48.206;16.340;2023-07-08T05:37:43;99710.56;;;27.12;32.53
16331;BME280;8275;48.206;16.340;2023-07-08T05:40:15;99704.09;;;27.24;32.01
16331;BME280;8275;48.206;16.340;2023-07-08T05:42:43;99706.03;;;27.36;31.87
16331;BME280;8275;48.206;16.340;2023-07-08T05:45:12;99705.19;;;27.47;31.62
16331;BME280;8275;48.206;16.340;2023-07-08T05:47:42;99705.63;;;27.61;31.27
16331;BME280;8275;48.206;16.340;2023-07-08T05:50:10;99705.19;;;27.75;31.50
16331;BME280;8275;48.206;16.340;2023-07-08T05:52:39;99700.66;;;27.86;31.14
16331;BME280;8275;48.206;16.340;2023-07-08T05:55:09;99703.78;;;27.97;30.44
16331;BME280;8275;48.206;16.340;2023-07-08T05:57:37;99698.13;;;28.09;30.85
16331;BME280;8275;48.206;16.340;2023-07-08T06:00:07;99696.41;;;28.20;30.29
16331;BME280;8275;48.206;16.340;2023-07-08T06:02:36;99696.28;;;28.32;30.58
16331;BME280;8275;48.206;16.340;2023-07-08T06:05:07;99698.03;;;28.36;30.17
16331;BME280;8275;48.206;16.340;2023-07-08T06:07:36;99694.59;;;28.43;30.16
16331;BME280;8275;48.206;16.340;2023-07-08T06:10:06;99695.09;;;28.48;30.17
16331;BME280;8275;48.206;16.340;2023-07-08T06:12:34;99696.09;;;28.56;30.21
16331;BME280;8275;48.206;16.340;2023-07-08T06:15:04;99689.13;;;28.66;30.05
16331;BME280;8275;48.206;16.340;2023-07-08T06:17:33;99697.47;;;28.78;29.92
16331;BME280;8275;48.206;16.340;2023-07-08T06:20:01;99702.09;;;28.86;29.95
16331;BME280;8275;48.206;16.340;2023-07-08T06:22:31;99699.44;;;28.93;29.80
16331;BME280;8275;48.206;16.340;2023-07-08T06:25:03;99690.31;;;28.99;29.55
16331;BME280;8275;48.206;16.340;2023-07-08T06:27:32;99689.31;;;29.07;29.40
16331;BME280;8275;48.206;16.340;2023-07-08T06:30:01;99691.81;;;29.12;28.90
16331;BME280;8275;48.206;16.340;2023-07-08T06:32:29;99692.28;;;29.14;29.22
16331;BME280;8275;48.206;16.340;2023-07-08T06:34:58;99690.09;;;29.24;28.82
16331;BME280;8275;48.206;16.340;2023-07-08T06:37:27;99688.31;;;29.35;29.22
16331;BME280;8275;48.206;16.340;2023-07-08T06:39:56;99691.63;;;29.40;28.80
16331;BME280;8275;48.206;16.340;2023-07-08T06:42:25;99688.66;;;29.52;28.80
16331;BME280;8275;48.206;16.340;2023-07-08T06:44:54;99691.78;;;29.66;28.68
16331;BME280;8275;48.206;16.340;2023-07-08T06:47:23;99679.28;;;29.86;28.41
16331;BME280;8275;48.206;16.340;2023-07-08T06:49:51;99678.72;;;30.00;28.19
16331;BME280;8275;48.206;16.340;2023-07-08T06:52:21;99670.38;;;30.07;28.05
16331;BME280;8275;48.206;16.340;2023-07-08T06:54:50;99673.66;;;30.09;28.13
16331;BME280;8275;48.206;16.340;2023-07-08T06:57:20;99679.00;;;30.14;27.96
16331;BME280;8275;48.206;16.340;2023-07-08T06:59:48;99675.47;;;30.21;27.61
16331;BME280;8275;48.206;16.340;2023-07-08T07:02:17;99680.97;;;30.33;27.60
16331;BME280;8275;48.206;16.340;2023-07-08T07:04:47;99679.53;;;30.42;27.63
16331;BME280;8275;48.206;16.340;2023-07-08T07:07:15;99671.97;;;30.50;27.18
16331;BME280;8275;48.206;16.340;2023-07-08T07:09:44;99670.84;;;30.54;27.02
16331;BME280;8275;48.206;16.340;2023-07-08T07:12:12;99663.66;;;30.61;26.97
16331;BME280;8275;48.206;16.340;2023-07-08T07:14:42;99664.09;;;30.63;27.02
16331;BME280;8275;48.206;16.340;2023-07-08T07:17:13;99668.28;;;30.72;26.99
16331;BME280;8275;48.206;16.340;2023-07-08T07:19:42;99666.81;;;30.82;26.69
16331;BME280;8275;48.206;16.340;2023-07-08T07:22:11;99666.19;;;30.92;26.63
16331;BME280;8275;48.206;16.340;2023-07-08T07:24:39;99670.41;;;31.05;26.51
16331;BME280;8275;48.206;16.340;2023-07-08T07:27:08;99669.38;;;31.16;26.23
16331;BME280;8275;48.206;16.340;2023-07-08T07:29:44;99672.22;;;31.20;26.26
16331;BME280;8275;48.206;16.340;2023-07-08T07:32:15;99671.22;;;31.35;26.07
16331;BME280;8275;48.206;16.340;2023-07-08T07:34:46;99673.06;;;31.50;25.92
16331;BME280;8275;48.206;16.340;2023-07-08T07:37:17;99675.25;;;31.64;26.13
16331;BME280;8275;48.206;16.340;2023-07-08T07:39:46;99679.81;;;31.75;25.61
16331;BME280;8275;48.206;16.340;2023-07-08T07:42:18;99679.91;;;31.82;26.03
16331;BME280;8275;48.206;16.340;2023-07-08T07:44:48;99680.31;;;31.84;25.76
16331;BME280;8275;48.206;16.340;2023-07-08T07:47:17;99668.97;;;31.81;25.58
16331;BME280;8275;48.206;16.340;2023-07-08T07:49:45;99679.88;;;31.79;25.54
16331;BME280;8275;48.206;16.340;2023-07-08T07:52:14;99680.31;;;31.84;25.78
16331;BME280;8275;48.206;16.340;2023-07-08T07:54:46;99683.59;;;31.86;25.64
16331;BME280;8275;48.206;16.340;2023-07-08T07:57:14;99680.81;;;31.90;25.83
16331;BME280;8275;48.206;16.340;2023-07-08T07:59:43;99675.66;;;31.99;25.60
16331;BME280;8275;48.206;16.340;2023-07-08T08:02:13;99674.53;;;32.07;25.32
16331;BME280;8275;48.206;16.340;2023-07-08T08:04:42;99679.47;;;32.17;25.61
16331;BME280;8275;48.206;16.340;2023-07-08T08:07:10;99684.03;;;32.25;25.26
16331;BME280;8275;48.206;16.340;2023-07-08T08:09:39;99683.69;;;32.34;25.52
16331;BME280;8275;48.206;16.340;2023-07-08T08:12:10;99681.69;;;32.38;25.42
16331;BME280;8275;48.206;16.340;2023-07-08T08:14:39;99673.59;;;32.36;25.17
16331;BME280;8275;48.206;16.340;2023-07-08T08:17:07;99673.59;;;32.40;25.38
16331;BME280;8275;48.206;16.340;2023-07-08T08:19:37;99671.19;;;32.42;24.89
16331;BME280;8275;48.206;16.340;2023-07-08T08:22:06;99667.97;;;32.43;25.13
16331;BME280;8275;48.206;16.340;2023-07-08T08:24:35;99670.41;;;32.41;25.48
16331;BME280;8275;48.206;16.340;2023-07-08T08:27:04;99678.09;;;32.41;25.28
16331;BME280;8275;48.206;16.340;2023-07-08T08:29:33;99671.19;;;32.42;25.09
16331;BME280;8275;48.206;16.340;2023-07-08T08:32:02;99672.09;;;32.49;25.05
16331;BME280;8275;48.206;16.340;2023-07-08T08:34:31;99668.13;;;32.61;24.64
16331;BME280;8275;48.206;16.340;2023-07-08T08:37:01;99668.59;;;32.70;24.74
16331;BME280;8275;48.206;16.340;2023-07-08T08:39:30;99674.75;;;32.79;24.49
16331;BME280;8275;48.206;16.340;2023-07-08T08:41:58;99666.25;;;32.79;24.07
16331;BME280;8275;48.206;16.340;2023-07-08T08:44:33;99675.53;;;32.73;24.07
16331;BME280;8275;48.206;16.340;2023-07-08T08:47:11;99662.09;;;32.70;24.35
16331;BME280;8275;48.206;16.340;2023-07-08T08:49:50;99667.41;;;32.71;24.72
16331;BME280;8275;48.206;16.340;2023-07-08T08:52:24;99673.91;;;32.72;24.25
16331;BME280;8275;48.206;16.340;2023-07-08T08:54:52;99669.00;;;32.69;24.59
16331;BME280;8275;48.206;16.340;2023-07-08T08:57:33;99665.78;;;32.70;24.86
16331;BME280;8275;48.206;16.340;2023-07-08T09:00:10;99661.38;;;32.80;24.26
16331;BME280;8275;48.206;16.340;2023-07-08T09:02:57;99649.66;;;32.85;24.50
16331;BME280;8275;48.206;16.340;2023-07-08T09:05:28;99646.88;;;32.95;24.52
16331;BME280;8275;48.206;16.340;2023-07-08T09:08:12;99643.66;;;32.97;24.48
16331;BME280;8275;48.206;16.340;2023-07-08T09:10:46;99633.16;;;33.04;24.16
16331;BME280;8275;48.206;16.340;2023-07-08T09:13:21;99636.44;;;33.10;24.06
16331;BME280;8275;48.206;16.340;2023-07-08T09:15:59;99630.00;;;33.16;23.79
16331;BME280;8275;48.206;16.340;2023-07-08T09:18:35;99638.94;;;33.25;23.84
16331;BME280;8275;48.206;16.340;2023-07-08T09:21:17;99633.69;;;33.28;24.01
16331;BME280;8275;48.206;16.340;2023-07-08T09:23:51;99634.09;;;33.30;24.17
16331;BME280;8275;48.206;16.340;2023-07-08T09:26:25;99638.16;;;33.32;23.99
16331;BME280;8275;48.206;16.340;2023-07-08T09:28:54;99644.22;;;33.27;23.91
16331;BME280;8275;48.206;16.340;2023-07-08T09:31:25;99634.47;;;33.21;23.62
16331;BME280;8275;48.206;16.340;2023-07-08T09:34:07;99632.00;;;33.12;24.32
16331;BME280;8275;48.206;16.340;2023-07-08T09:36:41;99630.00;;;33.16;24.00
16331;BME280;8275;48.206;16.340;2023-07-08T09:39:14;99623.53;;;33.23;24.04
16331;BME280;8275;48.206;16.340;2023-07-08T09:41:45;99626.41;;;33.27;23.27
16331;BME280;8275;48.206;16.340;2023-07-08T09:44:21;99625.19;;;33.31;23.24
16331;BME280;8275;48.206;16.340;2023-07-08T09:46:54;99621.97;;;33.40;23.20
16331;BME280;8275;48.206;16.340;2023-07-08T09:49:26;99620.34;;;33.42;23.65
16331;BME280;8275;48.206;16.340;2023-07-08T09:51:55;99612.25;;;33.48;23.21
16331;BME280;8275;48.206;16.340;2023-07-08T09:54:26;99612.25;;;33.48;23.46
16331;BME280;8275;48.206;16.340;2023-07-08T09:57:00;99613.88;;;33.49;22.99
16331;BME280;8275;48.206;16.340;2023-07-08T09:59:32;99609.03;;;33.49;23.33
16331;BME280;8275;48.206;16.340;2023-07-08T10:02:24;99605.78;;;33.47;23.18
16331;BME280;8275;48.206;16.340;2023-07-08T10:04:54;99605.41;;;33.52;23.04
16331;BME280;8275;48.206;16.340;2023-07-08T10:07:24;99606.63;;;33.58;23.05
16331;BME280;8275;48.206;16.340;2023-07-08T10:10:00;99605.44;;;33.63;22.87
16331;BME280;8275;48.206;16.340;2023-07-08T10:12:30;99612.34;;;33.69;22.72
16331;BME280;8275;48.206;16.340;2023-07-08T10:15:05;99605.03;;;33.71;22.80
16331;BME280;8275;48.206;16.340;2023-07-08T10:17:41;99598.56;;;33.74;22.77
16331;BME280;8275;48.206;16.340;2023-07-08T10:20:12;99591.22;;;33.73;22.78
16331;BME280;8275;48.206;16.340;2023-07-08T10:22:56;99588.00;;;33.75;22.78
16331;BME280;8275;48.206;16.340;2023-07-08T10:25:39;99593.28;;;33.76;22.14
16331;BME280;8275;48.206;16.340;2023-07-08T10:28:28;99589.59;;;33.69;22.17
16331;BME280;8275;48.206;16.340;2023-07-08T10:31:16;99588.00;;;33.68;22.22
16331;BME280;8275;48.206;16.340;2023-07-08T10:34:18;99590.84;;;33.68;22.19
16331;BME280;8275;48.206;16.340;2023-07-08T10:37:00;99594.09;;;33.70;22.46
16331;BME280;8275;48.206;16.340;2023-07-08T10:40:00;99592.44;;;33.58;22.26
16331;BME280;8275;48.206;16.340;2023-07-08T10:42:52;99591.63;;;33.58;21.86
16331;BME280;8275;48.206;16.340;2023-07-08T10:45:30;99582.69;;;33.63;21.59
16331;BME280;8275;48.206;16.340;2023-07-08T10:48:20;99580.25;;;33.65;21.66
16331;BME280;8275;48.206;16.340;2023-07-08T10:51:04;99581.13;;;33.86;22.17
16331;BME280;8275;48.206;16.340;2023-07-08T10:53:56;99576.69;;;34.21;21.47
16331;BME280;8275;48.206;16.340;2023-07-08T10:56:35;99569.34;;;34.58;21.57
16331;BME280;8275;48.206;16.340;2023-07-08T10:59:24;99575.72;;;34.98;21.27
16331;BME280;8275;48.206;16.340;2023-07-08T11:02:17;99569.81;;;35.54;21.01
16331;BME280;8275;48.206;16.340;2023-07-08T11:05:01;99556.28;;;36.20;20.64
16331;BME280;8275;48.206;16.340;2023-07-08T11:07:39;99552.00;;;36.83;20.03
16331;BME280;8275;48.206;16.340;2023-07-08T11:10:16;99557.47;;;37.35;19.42
16331;BME280;8275;48.206;16.340;2023-07-08T11:12:49;99544.88;;;37.89;18.52
16331;BME280;8275;48.206;16.340;2023-07-08T11:15:23;99544.41;;;38.40;18.55
16331;BME280;8275;48.206;16.340;2023-07-08T11:17:56;99546.06;;;38.84;17.86
16331;BME280;8275;48.206;16.340;2023-07-08T11:20:37;99550.69;;;39.17;17.77
16331;BME280;8275;48.206;16.340;2023-07-08T11:23:18;99538.50;;;39.49;17.06
16331;BME280;8275;48.206;16.340;2023-07-08T11:25:51;99541.78;;;39.83;17.04
16331;BME280;8275;48.206;16.340;2023-07-08T11:28:23;99538.69;;;40.26;16.52
16331;BME280;8275;48.206;16.340;2023-07-08T11:31:02;99544.78;;;40.73;15.80
16331;BME280;8275;48.206;16.340;2023-07-08T11:33:32;99545.78;;;41.24;14.90
16331;BME280;8275;48.206;16.340;2023-07-08T11:36:04;99545.22;;;41.70;14.98
16331;BME280;8275;48.206;16.340;2023-07-08T11:38:33;99543.59;;;42.20;14.66
16331;BME280;8275;48.206;16.340;2023-07-08T11:41:11;99541.38;;;42.71;14.34
16331;BME280;8275;48.206;16.340;2023-07-08T11:43:47;99546.53;;;43.10;14.17
16331;BME280;8275;48.206;16.340;2023-07-08T11:46:21;99537.25;;;43.37;13.64
16331;BME280;8275;48.206;16.340;2023-07-08T11:48:54;99539.69;;;43.69;13.39
16331;BME280;8275;48.206;16.340;2023-07-08T11:51:31;99541.22;;;44.01;13.45
16331;BME280;8275;48.206;16.340;2023-07-08T11:54:12;99538.47;;;44.37;13.42
16331;BME280;8275;48.206;16.340;2023-07-08T11:56:50;99538.03;;;44.93;12.86
16331;BME280;8275;48.206;16.340;2023-07-08T11:59:26;99532.84;;;45.42;12.55
16331;BME280;8275;48.206;16.340;2023-07-08T12:02:04;99530.94;;;45.81;11.70
16331;BME280;8275;48.206;16.340;2023-07-08T12:04:56;99519.84;;;46.12;11.84
16331;BME280;8275;48.206;16.340;2023-07-08T12:07:33;99525.72;;;46.50;11.56
16331;BME280;8275;48.206;16.340;2023-07-08T12:10:11;99516.31;;;46.79;10.86
16331;BME280;8275;48.206;16.340;2023-07-08T12:12:43;99513.13;;;47.15;10.53
16331;BME280;8275;48.206;16.340;2023-07-08T12:15:20;99509.59;;;47.55;10.12
16331;BME280;8275;48.206;16.340;2023-07-08T12:17:53;99519.53;;;47.98;9.73
16331;BME280;8275;48.206;16.340;2023-07-08T12:20:27;99510.31;;;48.34;9.41
16331;BME280;8275;48.206;16.340;2023-07-08T12:22:56;99518.97;;;48.69;9.52
16331;BME280;8275;48.206;16.340;2023-07-08T12:25:29;99522.72;;;48.95;9.29
16331;BME280;8275;48.206;16.340;2023-07-08T12:27:59;99518.81;;;49.24;8.93
16331;BME280;8275;48.206;16.340;2023-07-08T12:30:29;99510.78;;;49.45;8.74
16331;BME280;8275;48.206;16.340;2023-07-08T12:33:01;99503.34;;;49.44;8.46
16331;BME280;8275;48.206;16.340;2023-07-08T12:35:31;99507.97;;;49.24;8.02
16331;BME280;8275;48.206;16.340;2023-07-08T12:38:06;99516.78;;;49.10;8.36
16331;BME280;8275;48.206;16.340;2023-07-08T12:40:41;99520.56;;;49.16;8.07
16331;BME280;8275;48.206;16.340;2023-07-08T12:43:10;99518.56;;;49.53;7.76
16331;BME280;8275;48.206;16.340;2023-07-08T12:45:39;99503.47;;;49.86;8.01
16331;BME280;8275;48.206;16.340;2023-07-08T12:48:10;99501.75;;;50.05;7.55
16331;BME280;8275;48.206;16.340;2023-07-08T12:50:38;99493.78;;;50.00;7.54
16331;BME280;8275;48.206;16.340;2023-07-08T12:53:07;99489.50;;;49.96;7.70
16331;BME280;8275;48.206;16.340;2023-07-08T12:55:38;99492.41;;;49.96;7.84
16331;BME280;8275;48.206;16.340;2023-07-08T12:58:11;99494.53;;;49.95;7.57
16331;BME280;8275;48.206;16.340;2023-07-08T13:00:41;99490.53;;;49.92;7.55
16331;BME280;8275;48.206;16.340;2023-07-08T13:03:15;99492.06;;;49.82;7.14
16331;BME280;8275;48.206;16.340;2023-07-08T13:05:46;99494.16;;;49.82;7.45
16331;BME280;8275;48.206;16.340;2023-07-08T13:08:15;99491.53;;;49.84;7.21
16331;BME280;8275;48.206;16.340;2023-07-08T13:10:46;99495.28;;;49.90;7.13
16331;BME280;8275;48.206;16.340;2023-07-08T13:13:19;99487.00;;;49.83;7.38
16331;BME280;8275;48.206;16.340;2023-07-08T13:15:49;99485.38;;;49.76;7.09
16331;BME280;8275;48.206;16.340;2023-07-08T13:18:32;99489.03;;;49.71;7.17
16331;BME280;8275;48.206;16.340;2023-07-08T13:21:02;99492.28;;;49.79;7.42
16331;BME280;8275;48.206;16.340;2023-07-08T13:23:32;99499.19;;;49.81;6.80
16331;BME280;8275;48.206;16.340;2023-07-08T13:26:13;99494.03;;;50.02;6.83